sensor_id;sensor_type;location;lat;lon;timestamp;temperature;humidity
70051;SHT30;57391;51.306;22.680;2022-07-23T00:00:21;23.48;62.51
70051;SHT30;57391;51.306;22.680;2022-07-23T00:03:02;23.51;62.51
70051;SHT30;57391;51.306;22.680;2022-07-23T00:05:29;23.52;62.51
70051;SHT30;57391;51.306;22.680;2022-07-23T00:07:56;23.56;62.44
70051;SHT30;57391;51.306;22.680;2022-07-23T00:10:23;23.59;62.38
70051;SHT30;57391;51.306;22.680;2022-07-23T00:12:50;23.62;62.38
70051;SHT30;57391;51.306;22.680;2022-07-23T00:15:17;23.63;62.42
70051;SHT30;57391;51.306;22.680;2022-07-23T00:17:45;23.65;62.41
70051;SHT30;57391;51.306;22.680;2022-07-23T00:20:12;23.66;62.42
70051;SHT30;57391;51.306;22.680;2022-07-23T00:25:20;23.67;62.38
70051;SHT30;57391;51.306;22.680;2022-07-23T00:27:51;23.67;62.39
70051;SHT30;57391;51.306;22.680;2022-07-23T00:30:18;23.67;62.50
70051;SHT30;57391;51.306;22.680;2022-07-23T00:32:48;23.67;62.62
70051;SHT30;57391;51.306;22.680;2022-07-23T00:35:20;23.66;62.75
70051;SHT30;57391;51.306;22.680;2022-07-23T00:37:48;23.65;62.87
70051;SHT30;57391;51.306;22.680;2022-07-23T00:40:15;23.64;62.94
70051;SHT30;57391;51.306;22.680;2022-07-23T00:42:42;23.63;63.04
70051;SHT30;57391;51.306;22.680;2022-07-23T00:45:10;23.60;63.18
70051;SHT30;57391;51.306;22.680;2022-07-23T00:47:37;23.56;63.35
70051;SHT30;57391;51.306;22.680;2022-07-23T00:50:05;23.54;63.42
70051;SHT30;57391;51.306;22.680;2022-07-23T00:52:35;23.52;63.43
70051;SHT30;57391;51.306;22.680;2022-07-23T00:55:04;23.51;63.54
70051;SHT30;57391;51.306;22.680;2022-07-23T00:57:33;23.52;63.62
70051;SHT30;57391;51.306;22.680;2022-07-23T01:00:00;23.50;63.72
70051;SHT30;57391;51.306;22.680;2022-07-23T01:02:30;23.47;63.97
70051;SHT30;57391;51.306;22.680;2022-07-23T01:04:57;23.40;64.20
70051;SHT30;57391;51.306;22.680;2022-07-23T01:07:25;23.32;64.32
70051;SHT30;57391;51.306;22.680;2022-07-23T01:09:52;23.25;64.51
70051;SHT30;57391;51.306;22.680;2022-07-23T01:12:21;23.18;64.77
70051;SHT30;57391;51.306;22.680;2022-07-23T01:14:55;23.10;64.98
70051;SHT30;57391;51.306;22.680;2022-07-23T01:17:25;23.00;65.19
70051;SHT30;57391;51.306;22.680;2022-07-23T01:19:54;22.93;65.48
70051;SHT30;57391;51.306;22.680;2022-07-23T01:22:21;22.85;65.68
70051;SHT30;57391;51.306;22.680;2022-07-23T01:24:49;22.80;65.93
70051;SHT30;57391;51.306;22.680;2022-07-23T01:27:21;22.77;66.21
70051;SHT30;57391;51.306;22.680;2022-07-23T01:29:50;22.73;66.38
70051;SHT30;57391;51.306;22.680;2022-07-23T01:32:20;22.69;66.44
70051;SHT30;57391;51.306;22.680;2022-07-23T01:34:48;22.61;66.41
70051;SHT30;57391;51.306;22.680;2022-07-23T01:37:15;22.54;66.61
70051;SHT30;57391;51.306;22.680;2022-07-23T01:39:43;22.52;66.90
70051;SHT30;57391;51.306;22.680;2022-07-23T01:42:11;22.50;66.97
70051;SHT30;57391;51.306;22.680;2022-07-23T01:44:38;22.49;67.09
70051;SHT30;57391;51.306;22.680;2022-07-23T01:47:08;22.45;67.13
70051;SHT30;57391;51.306;22.680;2022-07-23T01:49:35;22.38;67.31
70051;SHT30;57391;51.306;22.680;2022-07-23T01:52:24;22.33;67.51
70051;SHT30;57391;51.306;22.680;2022-07-23T01:54:51;22.27;67.67
70051;SHT30;57391;51.306;22.680;2022-07-23T01:57:18;22.22;67.79
70051;SHT30;57391;51.306;22.680;2022-07-23T01:59:45;22.19;68.02
70051;SHT30;57391;51.306;22.680;2022-07-23T02:02:12;22.16;68.22
70051;SHT30;57391;51.306;22.680;2022-07-23T02:04:39;22.15;68.37
70051;SHT30;57391;51.306;22.680;2022-07-23T02:07:06;22.16;68.34
70051;SHT30;57391;51.306;22.680;2022-07-23T02:09:33;22.19;68.31
70051;SHT30;57391;51.306;22.680;2022-07-23T02:12:01;22.20;68.47
70051;SHT30;57391;51.306;22.680;2022-07-23T02:14:28;22.23;68.52
70051;SHT30;57391;51.306;22.680;2022-07-23T02:16:55;22.24;68.53
70051;SHT30;57391;51.306;22.680;2022-07-23T02:19:22;22.26;68.51
70051;SHT30;57391;51.306;22.680;2022-07-23T02:21:49;22.30;68.46
70051;SHT30;57391;51.306;22.680;2022-07-23T02:24:19;22.31;68.46
70051;SHT30;57391;51.306;22.680;2022-07-23T02:26:46;22.34;68.49
70051;SHT30;57391;51.306;22.680;2022-07-23T02:29:13;22.36;68.39
70051;SHT30;57391;51.306;22.680;2022-07-23T02:31:40;22.34;68.45
70051;SHT30;57391;51.306;22.680;2022-07-23T02:34:08;22.31;68.52
70051;SHT30;57391;51.306;22.680;2022-07-23T02:36:38;22.29;68.44
70051;SHT30;57391;51.306;22.680;2022-07-23T02:39:06;22.27;68.57
70051;SHT30;57391;51.306;22.680;2022-07-23T02:41:34;22.21;68.73
70051;SHT30;57391;51.306;22.680;2022-07-23T02:44:01;22.14;69.05
70051;SHT30;57391;51.306;22.680;2022-07-23T02:46:28;22.08;69.36
70051;SHT30;57391;51.306;22.680;2022-07-23T02:48:56;21.98;69.56
70051;SHT30;57391;51.306;22.680;2022-07-23T02:51:23;21.88;69.75
70051;SHT30;57391;51.306;22.680;2022-07-23T02:53:54;21.77;69.93
70051;SHT30;57391;51.306;22.680;2022-07-23T02:56:21;21.70;70.15
70051;SHT30;57391;51.306;22.680;2022-07-23T02:58:49;21.63;70.32
70051;SHT30;57391;51.306;22.680;2022-07-23T03:01:16;21.60;70.53
70051;SHT30;57391;51.306;22.680;2022-07-23T03:03:45;21.56;70.70
70051;SHT30;57391;51.306;22.680;2022-07-23T03:06:12;21.53;70.85
70051;SHT30;57391;51.306;22.680;2022-07-23T03:08:40;21.52;71.06
70051;SHT30;57391;51.306;22.680;2022-07-23T03:11:07;21.52;71.23
70051;SHT30;57391;51.306;22.680;2022-07-23T03:13:38;21.52;71.37
70051;SHT30;57391;51.306;22.680;2022-07-23T03:16:07;21.57;71.47
70051;SHT30;57391;51.306;22.680;2022-07-23T03:18:36;21.62;71.42
70051;SHT30;57391;51.306;22.680;2022-07-23T03:21:04;21.66;71.40
70051;SHT30;57391;51.306;22.680;2022-07-23T03:23:31;21.71;71.40
70051;SHT30;57391;51.306;22.680;2022-07-23T03:25:58;21.75;71.44
70051;SHT30;57391;51.306;22.680;2022-07-23T03:28:25;21.79;71.58
70051;SHT30;57391;51.306;22.680;2022-07-23T03:30:52;21.81;71.60
70051;SHT30;57391;51.306;22.680;2022-07-23T03:33:21;21.82;71.73
70051;SHT30;57391;51.306;22.680;2022-07-23T03:35:48;21.85;71.76
70051;SHT30;57391;51.306;22.680;2022-07-23T03:38:20;21.89;71.81
70051;SHT30;57391;51.306;22.680;2022-07-23T03:40:47;21.93;71.73
70051;SHT30;57391;51.306;22.680;2022-07-23T03:43:14;21.99;71.81
70051;SHT30;57391;51.306;22.680;2022-07-23T03:45:41;22.04;71.83
70051;SHT30;57391;51.306;22.680;2022-07-23T03:48:08;22.13;71.80
70051;SHT30;57391;51.306;22.680;2022-07-23T03:50:35;22.23;71.79
70051;SHT30;57391;51.306;22.680;2022-07-23T03:53:03;22.35;71.74
70051;SHT30;57391;51.306;22.680;2022-07-23T03:55:32;22.45;71.76
70051;SHT30;57391;51.306;22.680;2022-07-23T03:58:00;22.73;71.63
70051;SHT30;57391;51.306;22.680;2022-07-23T04:00:27;23.79;70.01
70051;SHT30;57391;51.306;22.680;2022-07-23T04:02:54;25.19;67.46
70051;SHT30;57391;51.306;22.680;2022-07-23T04:05:21;26.43;64.52
70051;SHT30;57391;51.306;22.680;2022-07-23T04:07:52;27.54;61.79
70051;SHT30;57391;51.306;22.680;2022-07-23T04:10:19;28.63;59.28
70051;SHT30;57391;51.306;22.680;2022-07-23T04:12:47;29.77;56.73
70051;SHT30;57391;51.306;22.680;2022-07-23T04:15:14;30.83;54.18
70051;SHT30;57391;51.306;22.680;2022-07-23T04:17:41;31.68;52.13
70051;SHT30;57391;51.306;22.680;2022-07-23T04:20:10;32.53;49.93
70051;SHT30;57391;51.306;22.680;2022-07-23T04:22:44;33.42;47.62
70051;SHT30;57391;51.306;22.680;2022-07-23T04:25:11;34.23;45.67
70051;SHT30;57391;51.306;22.680;2022-07-23T04:27:40;35.02;43.85
70051;SHT30;57391;51.306;22.680;2022-07-23T04:30:08;35.71;42.38
70051;SHT30;57391;51.306;22.680;2022-07-23T04:32:35;36.30;41.02
70051;SHT30;57391;51.306;22.680;2022-07-23T04:35:03;36.87;39.86
70051;SHT30;57391;51.306;22.680;2022-07-23T04:37:30;37.44;38.78
70051;SHT30;57391;51.306;22.680;2022-07-23T04:39:57;37.98;37.88
70051;SHT30;57391;51.306;22.680;2022-07-23T04:42:25;38.40;36.92
70051;SHT30;57391;51.306;22.680;2022-07-23T04:44:52;38.80;36.15
70051;SHT30;57391;51.306;22.680;2022-07-23T04:47:19;39.21;35.52
70051;SHT30;57391;51.306;22.680;2022-07-23T04:49:46;39.67;34.72
70051;SHT30;57391;51.306;22.680;2022-07-23T04:52:13;40.00;34.05
70051;SHT30;57391;51.306;22.680;2022-07-23T04:54:42;39.66;33.92
70051;SHT30;57391;51.306;22.680;2022-07-23T04:57:09;38.72;34.59
70051;SHT30;57391;51.306;22.680;2022-07-23T04:59:36;37.84;35.41
70051;SHT30;57391;51.306;22.680;2022-07-23T05:02:03;37.19;36.37
70051;SHT30;57391;51.306;22.680;2022-07-23T05:04:31;36.80;36.77
70051;SHT30;57391;51.306;22.680;2022-07-23T05:06:58;37.11;36.39
70051;SHT30;57391;51.306;22.680;2022-07-23T05:09:25;37.64;35.77
70051;SHT30;57391;51.306;22.680;2022-07-23T05:11:53;37.89;35.28
70051;SHT30;57391;51.306;22.680;2022-07-23T05:14:20;37.41;35.63
70051;SHT30;57391;51.306;22.680;2022-07-23T05:16:47;36.90;36.21
70051;SHT30;57391;51.306;22.680;2022-07-23T05:19:19;36.42;36.85
70051;SHT30;57391;51.306;22.680;2022-07-23T05:21:46;36.12;37.29
70051;SHT30;57391;51.306;22.680;2022-07-23T05:24:14;36.14;37.35
70051;SHT30;57391;51.306;22.680;2022-07-23T05:26:41;36.89;36.49
70051;SHT30;57391;51.306;22.680;2022-07-23T05:29:08;37.68;35.48
70051;SHT30;57391;51.306;22.680;2022-07-23T05:31:35;38.28;34.66
70051;SHT30;57391;51.306;22.680;2022-07-23T05:34:03;38.47;34.44
70051;SHT30;57391;51.306;22.680;2022-07-23T05:36:31;37.97;34.82
70051;SHT30;57391;51.306;22.680;2022-07-23T05:39:00;37.27;35.47
70051;SHT30;57391;51.306;22.680;2022-07-23T05:41:29;36.63;36.15
70051;SHT30;57391;51.306;22.680;2022-07-23T05:43:56;36.13;36.56
70051;SHT30;57391;51.306;22.680;2022-07-23T05:46:24;35.89;37.10
70051;SHT30;57391;51.306;22.680;2022-07-23T05:48:53;36.13;36.54
70051;SHT30;57391;51.306;22.680;2022-07-23T05:51:39;36.91;35.61
70051;SHT30;57391;51.306;22.680;2022-07-23T05:54:06;37.54;34.79
70051;SHT30;57391;51.306;22.680;2022-07-23T05:56:37;38.10;33.99
70051;SHT30;57391;51.306;22.680;2022-07-23T05:59:05;38.56;33.28
70051;SHT30;57391;51.306;22.680;2022-07-23T06:01:32;38.92;33.18
70051;SHT30;57391;51.306;22.680;2022-07-23T06:04:07;38.95;32.89
70051;SHT30;57391;51.306;22.680;2022-07-23T06:06:37;38.55;33.13
70051;SHT30;57391;51.306;22.680;2022-07-23T06:09:04;38.15;33.84
70051;SHT30;57391;51.306;22.680;2022-07-23T06:11:31;37.82;34.02
70051;SHT30;57391;51.306;22.680;2022-07-23T06:13:59;37.51;33.91
70051;SHT30;57391;51.306;22.680;2022-07-23T06:16:36;37.27;33.94
70051;SHT30;57391;51.306;22.680;2022-07-23T06:19:03;37.48;34.05
70051;SHT30;57391;51.306;22.680;2022-07-23T06:21:31;38.11;33.17
70051;SHT30;57391;51.306;22.680;2022-07-23T06:23:58;38.72;32.32
70051;SHT30;57391;51.306;22.680;2022-07-23T06:26:25;39.19;31.22
70051;SHT30;57391;51.306;22.680;2022-07-23T06:28:52;39.51;30.61
70051;SHT30;57391;51.306;22.680;2022-07-23T06:31:19;39.83;30.73
70051;SHT30;57391;51.306;22.680;2022-07-23T06:33:47;40.15;30.58
70051;SHT30;57391;51.306;22.680;2022-07-23T06:36:14;40.52;30.11
70051;SHT30;57391;51.306;22.680;2022-07-23T06:38:41;40.70;29.41
70051;SHT30;57391;51.306;22.680;2022-07-23T06:41:08;40.71;29.55
70051;SHT30;57391;51.306;22.680;2022-07-23T06:43:35;40.76;29.23
70051;SHT30;57391;51.306;22.680;2022-07-23T06:46:06;40.61;29.01
70051;SHT30;57391;51.306;22.680;2022-07-23T06:48:33;40.32;29.42
70051;SHT30;57391;51.306;22.680;2022-07-23T06:51:02;40.10;30.07
70051;SHT30;57391;51.306;22.680;2022-07-23T06:53:30;39.75;29.74
70051;SHT30;57391;51.306;22.680;2022-07-23T06:55:57;39.40;30.42
70051;SHT30;57391;51.306;22.680;2022-07-23T06:58:24;39.20;31.07
70051;SHT30;57391;51.306;22.680;2022-07-23T07:00:51;39.16;31.07
70051;SHT30;57391;51.306;22.680;2022-07-23T07:03:20;39.35;30.55
70051;SHT30;57391;51.306;22.680;2022-07-23T07:05:47;39.53;29.88
70051;SHT30;57391;51.306;22.680;2022-07-23T07:08:14;39.65;29.91
70051;SHT30;57391;51.306;22.680;2022-07-23T07:10:42;39.79;29.54
70051;SHT30;57391;51.306;22.680;2022-07-23T07:13:09;39.94;29.64
70051;SHT30;57391;51.306;22.680;2022-07-23T07:15:36;40.12;29.25
70051;SHT30;57391;51.306;22.680;2022-07-23T07:18:04;40.25;29.58
70051;SHT30;57391;51.306;22.680;2022-07-23T07:20:31;40.39;29.57
70051;SHT30;57391;51.306;22.680;2022-07-23T07:22:58;40.58;29.38
70051;SHT30;57391;51.306;22.680;2022-07-23T07:25:25;40.78;29.17
70051;SHT30;57391;51.306;22.680;2022-07-23T07:27:52;40.94;28.62
70051;SHT30;57391;51.306;22.680;2022-07-23T07:30:19;41.10;29.34
70051;SHT30;57391;51.306;22.680;2022-07-23T07:32:47;41.25;28.38
70051;SHT30;57391;51.306;22.680;2022-07-23T07:35:14;41.36;29.02
70051;SHT30;57391;51.306;22.680;2022-07-23T07:37:41;41.47;28.33
70051;SHT30;57391;51.306;22.680;2022-07-23T07:40:08;41.40;27.93
70051;SHT30;57391;51.306;22.680;2022-07-23T07:42:43;41.32;27.73
70051;SHT30;57391;51.306;22.680;2022-07-23T07:45:16;41.24;28.53
70051;SHT30;57391;51.306;22.680;2022-07-23T07:47:43;41.14;28.72
70051;SHT30;57391;51.306;22.680;2022-07-23T07:50:10;40.85;28.87
70051;SHT30;57391;51.306;22.680;2022-07-23T07:52:38;40.58;29.08
70051;SHT30;57391;51.306;22.680;2022-07-23T07:55:06;40.35;28.74
70051;SHT30;57391;51.306;22.680;2022-07-23T07:57:35;40.25;29.36
70051;SHT30;57391;51.306;22.680;2022-07-23T08:00:04;40.24;28.82
70051;SHT30;57391;51.306;22.680;2022-07-23T08:02:44;40.36;28.93
70051;SHT30;57391;51.306;22.680;2022-07-23T08:05:21;40.41;28.53
70051;SHT30;57391;51.306;22.680;2022-07-23T08:07:50;40.45;27.95
70051;SHT30;57391;51.306;22.680;2022-07-23T08:10:18;40.49;27.20
70051;SHT30;57391;51.306;22.680;2022-07-23T08:12:47;40.51;27.16
70051;SHT30;57391;51.306;22.680;2022-07-23T08:15:18;40.52;27.46
70051;SHT30;57391;51.306;22.680;2022-07-23T08:17:48;40.56;27.72
70051;SHT30;57391;51.306;22.680;2022-07-23T08:20:16;40.53;26.95
70051;SHT30;57391;51.306;22.680;2022-07-23T08:25:24;40.44;27.23
70051;SHT30;57391;51.306;22.680;2022-07-23T08:27:54;40.38;27.34
70051;SHT30;57391;51.306;22.680;2022-07-23T08:30:23;40.31;27.43
70051;SHT30;57391;51.306;22.680;2022-07-23T08:33:09;40.30;27.98
70051;SHT30;57391;51.306;22.680;2022-07-23T08:35:41;40.21;27.74
70051;SHT30;57391;51.306;22.680;2022-07-23T08:38:14;40.12;27.70
70051;SHT30;57391;51.306;22.680;2022-07-23T08:40:45;40.12;27.96
70051;SHT30;57391;51.306;22.680;2022-07-23T08:43:37;40.11;27.70
70051;SHT30;57391;51.306;22.680;2022-07-23T08:46:04;40.10;27.53
70051;SHT30;57391;51.306;22.680;2022-07-23T08:48:33;40.14;27.95
70051;SHT30;57391;51.306;22.680;2022-07-23T08:51:05;40.11;27.53
70051;SHT30;57391;51.306;22.680;2022-07-23T08:53:34;40.15;27.66
70051;SHT30;57391;51.306;22.680;2022-07-23T08:56:05;40.19;28.10
70051;SHT30;57391;51.306;22.680;2022-07-23T08:58:34;40.23;27.50
70051;SHT30;57391;51.306;22.680;2022-07-23T09:01:01;40.22;27.14
70051;SHT30;57391;51.306;22.680;2022-07-23T09:03:31;40.27;27.11
70051;SHT30;57391;51.306;22.680;2022-07-23T09:06:01;40.33;27.44
70051;SHT30;57391;51.306;22.680;2022-07-23T09:08:42;40.25;27.23
70051;SHT30;57391;51.306;22.680;2022-07-23T09:11:12;40.23;27.17
70051;SHT30;57391;51.306;22.680;2022-07-23T09:13:47;40.08;26.30
70051;SHT30;57391;51.306;22.680;2022-07-23T09:16:23;39.92;27.45
70051;SHT30;57391;51.306;22.680;2022-07-23T09:18:55;39.74;27.53
70051;SHT30;57391;51.306;22.680;2022-07-23T09:24:08;38.88;27.71
70051;SHT30;57391;51.306;22.680;2022-07-23T09:26:41;38.62;27.58
70051;SHT30;57391;51.306;22.680;2022-07-23T09:31:54;38.21;27.85
70051;SHT30;57391;51.306;22.680;2022-07-23T09:34:35;38.28;28.80
70051;SHT30;57391;51.306;22.680;2022-07-23T09:37:16;38.42;28.11
70051;SHT30;57391;51.306;22.680;2022-07-23T09:39:46;38.51;28.73
70051;SHT30;57391;51.306;22.680;2022-07-23T09:44:48;38.90;26.90
70051;SHT30;57391;51.306;22.680;2022-07-23T09:47:22;39.03;26.00
70051;SHT30;57391;51.306;22.680;2022-07-23T09:52:48;38.94;25.93
70051;SHT30;57391;51.306;22.680;2022-07-23T09:55:17;38.86;26.50
70051;SHT30;57391;51.306;22.680;2022-07-23T09:57:45;38.85;26.67
70051;SHT30;57391;51.306;22.680;2022-07-23T10:00:17;38.89;26.64
70051;SHT30;57391;51.306;22.680;2022-07-23T10:02:46;38.90;27.68
70051;SHT30;57391;51.306;22.680;2022-07-23T10:05:29;39.05;26.91
70051;SHT30;57391;51.306;22.680;2022-07-23T10:08:35;39.14;26.56
70051;SHT30;57391;51.306;22.680;2022-07-23T10:11:39;38.99;27.02
70051;SHT30;57391;51.306;22.680;2022-07-23T10:14:20;38.70;28.01
70051;SHT30;57391;51.306;22.680;2022-07-23T10:16:53;38.34;28.18
70051;SHT30;57391;51.306;22.680;2022-07-23T10:19:21;38.18;28.48
70051;SHT30;57391;51.306;22.680;2022-07-23T10:21:50;38.16;28.79
70051;SHT30;57391;51.306;22.680;2022-07-23T10:30:39;38.31;28.58
70051;SHT30;57391;51.306;22.680;2022-07-23T10:36:40;37.71;28.84
70051;SHT30;57391;51.306;22.680;2022-07-23T10:39:35;37.38;29.34
70051;SHT30;57391;51.306;22.680;2022-07-23T10:42:13;37.37;29.17
70051;SHT30;57391;51.306;22.680;2022-07-23T10:44:44;37.52;30.28
70051;SHT30;57391;51.306;22.680;2022-07-23T10:47:27;37.59;28.86
70051;SHT30;57391;51.306;22.680;2022-07-23T10:53:08;37.86;28.11
70051;SHT30;57391;51.306;22.680;2022-07-23T10:55:45;37.90;28.03
70051;SHT30;57391;51.306;22.680;2022-07-23T10:58:19;37.98;27.70
70051;SHT30;57391;51.306;22.680;2022-07-23T11:04:05;38.11;28.99
70051;SHT30;57391;51.306;22.680;2022-07-23T11:20:19;37.93;27.84
70051;SHT30;57391;51.306;22.680;2022-07-23T11:22:50;38.03;28.08
70051;SHT30;57391;51.306;22.680;2022-07-23T11:27:54;38.11;27.26
70051;SHT30;57391;51.306;22.680;2022-07-23T11:30:39;38.05;27.83
70051;SHT30;57391;51.306;22.680;2022-07-23T11:35:40;37.92;27.69
70051;SHT30;57391;51.306;22.680;2022-07-23T11:38:17;37.80;27.26
70051;SHT30;57391;51.306;22.680;2022-07-23T11:40:47;37.78;28.35
70051;SHT30;57391;51.306;22.680;2022-07-23T11:43:21;37.81;27.76
70051;SHT30;57391;51.306;22.680;2022-07-23T11:45:50;37.81;28.07
70051;SHT30;57391;51.306;22.680;2022-07-23T11:48:24;37.82;28.86
70051;SHT30;57391;51.306;22.680;2022-07-23T11:50:54;37.82;29.40
70051;SHT30;57391;51.306;22.680;2022-07-23T11:53:28;37.78;28.41
70051;SHT30;57391;51.306;22.680;2022-07-23T11:56:07;37.74;27.92
70051;SHT30;57391;51.306;22.680;2022-07-23T11:58:37;37.71;28.57
70051;SHT30;57391;51.306;22.680;2022-07-23T12:01:06;37.70;27.65
70051;SHT30;57391;51.306;22.680;2022-07-23T12:03:33;37.65;28.92
70051;SHT30;57391;51.306;22.680;2022-07-23T12:06:00;37.61;28.65
70051;SHT30;57391;51.306;22.680;2022-07-23T12:08:28;37.62;28.29
70051;SHT30;57391;51.306;22.680;2022-07-23T12:10:55;37.62;27.70
70051;SHT30;57391;51.306;22.680;2022-07-23T12:13:22;37.56;27.96
70051;SHT30;57391;51.306;22.680;2022-07-23T12:15:53;37.49;27.31
70051;SHT30;57391;51.306;22.680;2022-07-23T12:18:24;37.45;28.27
70051;SHT30;57391;51.306;22.680;2022-07-23T12:20:54;37.45;28.72
70051;SHT30;57391;51.306;22.680;2022-07-23T12:23:25;37.42;29.38
70051;SHT30;57391;51.306;22.680;2022-07-23T12:25:53;37.35;28.66
70051;SHT30;57391;51.306;22.680;2022-07-23T12:28:29;37.36;28.82
70051;SHT30;57391;51.306;22.680;2022-07-23T12:31:04;37.33;28.71
70051;SHT30;57391;51.306;22.680;2022-07-23T12:33:32;37.25;27.87
70051;SHT30;57391;51.306;22.680;2022-07-23T12:36:04;37.23;28.22
70051;SHT30;57391;51.306;22.680;2022-07-23T12:38:39;37.24;27.69
70051;SHT30;57391;51.306;22.680;2022-07-23T12:41:09;37.21;27.87
70051;SHT30;57391;51.306;22.680;2022-07-23T12:43:38;37.22;27.85
70051;SHT30;57391;51.306;22.680;2022-07-23T12:46:11;37.18;26.33
70051;SHT30;57391;51.306;22.680;2022-07-23T12:51:20;37.12;28.36
70051;SHT30;57391;51.306;22.680;2022-07-23T12:53:54;37.10;27.49
70051;SHT30;57391;51.306;22.680;2022-07-23T12:56:32;37.02;28.08
70051;SHT30;57391;51.306;22.680;2022-07-23T12:59:06;36.97;28.64
70051;SHT30;57391;51.306;22.680;2022-07-23T13:04:17;36.74;28.63
70051;SHT30;57391;51.306;22.680;2022-07-23T13:09:28;36.60;28.13
70051;SHT30;57391;51.306;22.680;2022-07-23T13:11:58;36.54;29.04
70051;SHT30;57391;51.306;22.680;2022-07-23T13:14:26;36.52;29.18
70051;SHT30;57391;51.306;22.680;2022-07-23T13:16:55;36.40;29.37
70051;SHT30;57391;51.306;22.680;2022-07-23T13:19:23;36.27;29.57
70051;SHT30;57391;51.306;22.680;2022-07-23T13:21:50;36.19;28.72
70051;SHT30;57391;51.306;22.680;2022-07-23T13:24:17;36.13;29.09
70051;SHT30;57391;51.306;22.680;2022-07-23T13:26:44;36.10;29.50
70051;SHT30;57391;51.306;22.680;2022-07-23T13:29:13;36.15;29.45
70051;SHT30;57391;51.306;22.680;2022-07-23T13:31:40;36.13;28.44
70051;SHT30;57391;51.306;22.680;2022-07-23T13:34:07;36.08;29.37
70051;SHT30;57391;51.306;22.680;2022-07-23T13:36:37;36.06;29.54
70051;SHT30;57391;51.306;22.680;2022-07-23T13:39:04;36.02;29.64
70051;SHT30;57391;51.306;22.680;2022-07-23T13:41:32;35.97;29.52
70051;SHT30;57391;51.306;22.680;2022-07-23T13:43:59;35.96;28.79
70051;SHT30;57391;51.306;22.680;2022-07-23T13:46:26;35.96;29.80
70051;SHT30;57391;51.306;22.680;2022-07-23T13:48:53;35.94;29.78
70051;SHT30;57391;51.306;22.680;2022-07-23T13:51:20;35.94;29.90
70051;SHT30;57391;51.306;22.680;2022-07-23T13:53:47;35.92;29.56
70051;SHT30;57391;51.306;22.680;2022-07-23T13:56:15;35.85;28.62
70051;SHT30;57391;51.306;22.680;2022-07-23T13:58:42;35.82;28.53
70051;SHT30;57391;51.306;22.680;2022-07-23T14:01:09;35.82;29.84
70051;SHT30;57391;51.306;22.680;2022-07-23T14:03:36;35.83;29.68
70051;SHT30;57391;51.306;22.680;2022-07-23T14:06:04;35.82;29.72
70051;SHT30;57391;51.306;22.680;2022-07-23T14:08:32;35.81;29.53
70051;SHT30;57391;51.306;22.680;2022-07-23T14:10:59;35.78;29.31
70051;SHT30;57391;51.306;22.680;2022-07-23T14:13:26;35.78;29.91
70051;SHT30;57391;51.306;22.680;2022-07-23T14:15:53;35.69;29.53
70051;SHT30;57391;51.306;22.680;2022-07-23T14:18:20;35.54;28.89
70051;SHT30;57391;51.306;22.680;2022-07-23T14:20:47;35.43;28.76
70051;SHT30;57391;51.306;22.680;2022-07-23T14:23:14;35.39;28.41
70051;SHT30;57391;51.306;22.680;2022-07-23T14:25:41;35.39;27.68
70051;SHT30;57391;51.306;22.680;2022-07-23T14:28:08;35.41;28.28
70051;SHT30;57391;51.306;22.680;2022-07-23T14:30:38;35.41;29.32
70051;SHT30;57391;51.306;22.680;2022-07-23T14:33:05;35.40;29.33
70051;SHT30;57391;51.306;22.680;2022-07-23T14:35:32;35.41;29.27
70051;SHT30;57391;51.306;22.680;2022-07-23T14:37:59;35.40;29.30
70051;SHT30;57391;51.306;22.680;2022-07-23T14:40:26;35.35;29.36
70051;SHT30;57391;51.306;22.680;2022-07-23T14:42:53;35.31;30.31
70051;SHT30;57391;51.306;22.680;2022-07-23T14:45:20;35.27;29.20
70051;SHT30;57391;51.306;22.680;2022-07-23T14:47:47;35.22;28.53
70051;SHT30;57391;51.306;22.680;2022-07-23T14:50:14;35.18;28.52
70051;SHT30;57391;51.306;22.680;2022-07-23T14:52:41;35.19;28.92
70051;SHT30;57391;51.306;22.680;2022-07-23T14:55:08;35.18;29.79
70051;SHT30;57391;51.306;22.680;2022-07-23T14:57:35;35.14;28.65
70051;SHT30;57391;51.306;22.680;2022-07-23T15:00:06;35.08;29.72
70051;SHT30;57391;51.306;22.680;2022-07-23T15:02:34;35.00;29.80
70051;SHT30;57391;51.306;22.680;2022-07-23T15:05:01;34.92;28.75
70051;SHT30;57391;51.306;22.680;2022-07-23T15:07:52;34.84;29.98
70051;SHT30;57391;51.306;22.680;2022-07-23T15:10:19;34.70;29.86
70051;SHT30;57391;51.306;22.680;2022-07-23T15:12:48;34.60;30.51
70051;SHT30;57391;51.306;22.680;2022-07-23T15:15:16;34.57;31.20
70051;SHT30;57391;51.306;22.680;2022-07-23T15:17:44;34.63;30.66
70051;SHT30;57391;51.306;22.680;2022-07-23T15:20:11;34.67;30.92
70051;SHT30;57391;51.306;22.680;2022-07-23T15:22:39;34.66;30.36
70051;SHT30;57391;51.306;22.680;2022-07-23T15:25:06;34.65;31.11
70051;SHT30;57391;51.306;22.680;2022-07-23T15:27:34;34.66;29.12
70051;SHT30;57391;51.306;22.680;2022-07-23T15:30:01;34.69;28.95
70051;SHT30;57391;51.306;22.680;2022-07-23T15:32:30;34.71;29.25
70051;SHT30;57391;51.306;22.680;2022-07-23T15:34:57;34.70;28.38
70051;SHT30;57391;51.306;22.680;2022-07-23T15:37:24;34.71;28.76
70051;SHT30;57391;51.306;22.680;2022-07-23T15:39:51;34.69;29.00
70051;SHT30;57391;51.306;22.680;2022-07-23T15:42:19;34.67;29.28
70051;SHT30;57391;51.306;22.680;2022-07-23T15:44:46;34.60;29.72
70051;SHT30;57391;51.306;22.680;2022-07-23T15:47:16;34.52;29.60
70051;SHT30;57391;51.306;22.680;2022-07-23T15:49:45;34.40;29.68
70051;SHT30;57391;51.306;22.680;2022-07-23T15:52:12;34.31;29.68
70051;SHT30;57391;51.306;22.680;2022-07-23T15:54:40;34.22;29.78
70051;SHT30;57391;51.306;22.680;2022-07-23T15:57:08;34.12;29.76
70051;SHT30;57391;51.306;22.680;2022-07-23T15:59:36;34.02;29.84
70051;SHT30;57391;51.306;22.680;2022-07-23T16:02:03;33.95;29.82
70051;SHT30;57391;51.306;22.680;2022-07-23T16:04:31;33.90;30.49
70051;SHT30;57391;51.306;22.680;2022-07-23T16:06:59;33.81;30.81
70051;SHT30;57391;51.306;22.680;2022-07-23T16:09:26;33.68;31.25
70051;SHT30;57391;51.306;22.680;2022-07-23T16:11:53;33.56;32.45
70051;SHT30;57391;51.306;22.680;2022-07-23T16:14:21;33.42;33.32
70051;SHT30;57391;51.306;22.680;2022-07-23T16:16:48;33.32;33.53
70051;SHT30;57391;51.306;22.680;2022-07-23T16:19:15;33.21;33.75
70051;SHT30;57391;51.306;22.680;2022-07-23T16:21:43;33.07;34.31
70051;SHT30;57391;51.306;22.680;2022-07-23T16:24:10;32.94;34.61
70051;SHT30;57391;51.306;22.680;2022-07-23T16:26:37;32.83;34.99